Time;durP1;ratioP1;P1;durP2;ratioP2;P2;SDS_P1;SDS_P2;PMS_P1;PMS_P2;Temp;Humidity;BMP_temperature;BMP_pressure;BME280_temperature;BME280_humidity;BME280_pressure;Samples;Min_cycle;Max_cycle;Signal;HPM_P1;HPM_P2
2023/09/20 00:00:29;;;;;;;6.80;1.90;;;;;;;;;;103849;1289;544795;-75
2023/09/20 00:04:07;;;;;;;6.80;2.00;;;;;;;;;;104041;1292;544983;-76
2023/09/20 00:07:43;;;;;;;4.90;1.90;;;;;;;;;;103782;1292;545522;-75
2023/09/20 00:11:21;;;;;;;7.80;2.10;;;;;;;;;;103678;1291;544749;-75
2023/09/20 00:14:59;;;;;;;5.70;1.90;;;;;;;;;;104575;1286;544808;-75
2023/09/20 00:18:36;;;;;;;6.00;2.10;;;;;;;;;;103714;1289;544776;-75
2023/09/20 00:22:14;;;;;;;5.80;2.10;;;;;;;;;;103769;1289;544955;-75
2023/09/20 00:25:51;;;;;;;5.90;2.00;;;;;;;;;;103781;1292;544711;-75
2023/09/20 00:29:28;;;;;;;5.30;1.90;;;;;;;;;;103893;1292;544745;-74
2023/09/20 00:33:05;;;;;;;6.90;2.10;;;;;;;;;;103728;1289;545045;-75
2023/09/20 00:36:44;;;;;;;5.00;1.80;;;;;;;;;;103773;1295;544958;-76
2023/09/20 00:40:21;;;;;;;7.40;2.10;;;;;;;;;;103792;1292;544755;-76
2023/09/20 00:43:58;;;;;;;5.40;2.00;;;;;;;;;;103761;1291;545269;-76
2023/09/20 00:47:40;;;;;;;4.90;1.90;;;;;;;;;;103647;1291;544936;-75
2023/09/20 00:51:14;;;;;;;6.00;1.80;;;;;;;;;;103768;1292;545070;-75
2023/09/20 00:54:50;;;;;;;5.60;2.00;;;;;;;;;;103647;1291;544851;-74
2023/09/20 00:58:29;;;;;;;4.70;1.70;;;;;;;;;;103742;1292;545820;-75
2023/09/20 01:02:06;;;;;;;5.50;1.90;;;;;;;;;;103768;1292;544964;-74
2023/09/20 01:05:43;;;;;;;5.80;1.80;;;;;;;;;;104129;1286;545492;-75
2023/09/20 01:09:22;;;;;;;5.00;1.90;;;;;;;;;;103717;1290;545128;-72
2023/09/20 01:12:58;;;;;;;6.50;2.10;;;;;;;;;;103718;1291;545001;-74
2023/09/20 01:16:36;;;;;;;6.10;2.00;;;;;;;;;;103689;1289;544712;-75
2023/09/20 01:20:18;;;;;;;5.30;1.80;;;;;;;;;;103885;1295;544817;-75
2023/09/20 01:23:50;;;;;;;6.40;2.20;;;;;;;;;;103536;1293;545537;-75
2023/09/20 01:27:29;;;;;;;4.40;1.70;;;;;;;;;;103782;1291;544917;-74
2023/09/20 01:31:05;;;;;;;5.50;1.70;;;;;;;;;;103598;1291;544728;-75
2023/09/20 01:34:42;;;;;;;5.60;2.00;;;;;;;;;;103754;1289;544729;-74
2023/09/20 01:38:20;;;;;;;5.30;1.90;;;;;;;;;;103998;1302;544976;-75
2023/09/20 01:41:57;;;;;;;5.80;1.80;;;;;;;;;;103782;1290;544970;-75
2023/09/20 01:45:36;;;;;;;5.40;1.80;;;;;;;;;;103647;1291;544906;-75
2023/09/20 01:49:10;;;;;;;6.10;1.70;;;;;;;;;;103935;1293;544831;-75
2023/09/20 01:52:54;;;;;;;5.30;1.90;;;;;;;;;;103784;1292;544859;-75
2023/09/20 01:56:31;;;;;;;5.60;1.70;;;;;;;;;;103834;1292;544885;-75
2023/09/20 02:00:21;;;;;;;6.30;1.80;;;;;;;;;;103844;1292;545202;-75
2023/09/20 02:03:49;;;;;;;4.80;1.60;;;;;;;;;;103832;1290;545018;-75
2023/09/20 02:07:23;;;;;;;4.60;1.80;;;;;;;;;;104210;1284;545882;-75
2023/09/20 02:11:01;;;;;;;6.40;2.10;;;;;;;;;;103764;1290;545330;-74
2023/09/20 02:14:38;;;;;;;8.00;1.80;;;;;;;;;;103683;1291;545061;-73
2023/09/20 02:18:16;;;;;;;5.50;1.90;;;;;;;;;;103831;1289;544771;-75
2023/09/20 02:21:58;;;;;;;4.90;1.50;;;;;;;;;;103563;1292;548040;-74
2023/09/20 02:25:30;;;;;;;5.70;1.80;;;;;;;;;;103781;1292;544984;-76
2023/09/20 02:29:08;;;;;;;5.40;1.80;;;;;;;;;;103743;1292;544792;-75
2023/09/20 02:32:46;;;;;;;6.30;2.00;;;;;;;;;;103974;1292;544735;-75
2023/09/20 02:36:23;;;;;;;5.70;1.90;;;;;;;;;;103718;1295;545382;-74
2023/09/20 02:40:01;;;;;;;4.70;1.80;;;;;;;;;;103910;1292;545461;-75
2023/09/20 02:43:38;;;;;;;6.80;1.90;;;;;;;;;;103749;1290;544729;-75
2023/09/20 02:47:15;;;;;;;5.30;1.70;;;;;;;;;;103524;1298;544791;-75
2023/09/20 02:50:50;;;;;;;4.50;1.90;;;;;;;;;;103933;1292;545033;-75
2023/09/20 02:54:29;;;;;;;5.80;1.70;;;;;;;;;;104043;1289;544775;-75
2023/09/20 02:58:13;;;;;;;6.90;1.90;;;;;;;;;;103786;1291;544788;-74
2023/09/20 03:01:49;;;;;;;5.50;1.70;;;;;;;;;;103742;1291;545122;-76
2023/09/20 03:05:31;;;;;;;4.60;1.60;;;;;;;;;;103869;1291;544798;-74
2023/09/20 03:09:04;;;;;;;5.10;1.80;;;;;;;;;;103758;1291;545441;-76
2023/09/20 03:12:43;;;;;;;6.60;2.10;;;;;;;;;;103914;1289;545417;-75
2023/09/20 03:16:19;;;;;;;5.30;1.90;;;;;;;;;;103535;1293;545057;-74
2023/09/20 03:19:56;;;;;;;5.00;1.90;;;;;;;;;;103776;1291;545009;-75
2023/09/20 03:23:33;;;;;;;5.20;1.70;;;;;;;;;;103746;1290;545429;-74
2023/09/20 03:27:12;;;;;;;5.30;2.00;;;;;;;;;;103986;1289;545440;-74
2023/09/20 03:30:51;;;;;;;6.60;2.20;;;;;;;;;;103760;1294;546471;-75
2023/09/20 03:34:26;;;;;;;5.70;2.00;;;;;;;;;;103901;1292;545005;-75
2023/09/20 03:38:03;;;;;;;5.50;1.90;;;;;;;;;;103766;1291;544921;-76
2023/09/20 03:41:41;;;;;;;6.50;2.00;;;;;;;;;;103753;1301;544813;-75
2023/09/20 03:45:19;;;;;;;5.70;1.70;;;;;;;;;;103816;1294;545319;-75
2023/09/20 03:48:56;;;;;;;5.00;1.80;;;;;;;;;;103939;1289;544933;-75
2023/09/20 03:52:33;;;;;;;6.10;2.10;;;;;;;;;;103458;1297;545470;-75
2023/09/20 03:56:11;;;;;;;7.20;2.10;;;;;;;;;;103680;1296;544784;-75
2023/09/20 03:59:48;;;;;;;8.90;2.00;;;;;;;;;;103769;1292;544820;-75
2023/09/20 04:03:25;;;;;;;5.60;1.80;;;;;;;;;;103736;1292;544774;-75
2023/09/20 04:07:04;;;;;;;5.80;1.70;;;;;;;;;;103824;1289;545138;-75
2023/09/20 04:10:40;;;;;;;7.10;2.10;;;;;;;;;;104097;1285;546201;-75
2023/09/20 04:14:18;;;;;;;6.30;2.00;;;;;;;;;;103945;1292;544759;-76
2023/09/20 04:17:55;;;;;;;6.10;2.00;;;;;;;;;;103643;1291;544786;-76
2023/09/20 04:21:33;;;;;;;5.70;1.80;;;;;;;;;;103788;1290;545041;-74
2023/09/20 04:25:11;;;;;;;6.50;1.80;;;;;;;;;;104090;1286;545395;-75
2023/09/20 04:28:55;;;;;;;4.60;1.60;;;;;;;;;;104053;1285;546903;-74
2023/09/20 04:32:25;;;;;;;5.80;1.80;;;;;;;;;;104187;1285;544774;-74
2023/09/20 04:36:04;;;;;;;7.00;2.20;;;;;;;;;;103814;1292;545012;-75
2023/09/20 04:39:40;;;;;;;6.40;2.20;;;;;;;;;;103890;1289;544740;-75
2023/09/20 04:43:18;;;;;;;6.30;2.30;;;;;;;;;;103507;1295;545798;-75
2023/09/20 04:46:57;;;;;;;7.60;2.70;;;;;;;;;;103777;1292;544766;-75
2023/09/20 04:50:34;;;;;;;7.80;2.20;;;;;;;;;;103825;1291;544957;-75
2023/09/20 04:54:10;;;;;;;8.90;2.90;;;;;;;;;;103737;1292;545682;-75
2023/09/20 04:57:48;;;;;;;7.20;2.40;;;;;;;;;;103747;1291;545606;-74
2023/09/20 05:01:25;;;;;;;6.30;1.90;;;;;;;;;;103764;1289;546394;-75
2023/09/20 05:04:59;;;;;;;6.10;2.20;;;;;;;;;;103961;1292;544933;-76
2023/09/20 05:08:50;;;;;;;9.00;2.20;;;;;;;;;;103477;1291;547914;-74
2023/09/20 05:12:19;;;;;;;10.80;2.40;;;;;;;;;;103749;1289;545310;-75
2023/09/20 05:15:57;;;;;;;7.00;2.00;;;;;;;;;;103774;1292;545011;-75
2023/09/20 05:19:35;;;;;;;9.00;2.30;;;;;;;;;;104704;1289;544878;-75
2023/09/20 05:23:09;;;;;;;7.50;2.10;;;;;;;;;;103999;1292;545323;-74
2023/09/20 05:26:51;;;;;;;6.80;2.10;;;;;;;;;;103974;1292;544793;-75
2023/09/20 05:30:31;;;;;;;7.60;2.30;;;;;;;;;;103797;1291;545565;-74
2023/09/20 05:34:06;;;;;;;11.20;2.40;;;;;;;;;;105619;1292;545544;-74
2023/09/20 05:37:44;;;;;;;9.70;2.20;;;;;;;;;;103632;1292;544770;-74
2023/09/20 05:41:21;;;;;;;9.40;2.40;;;;;;;;;;103785;1292;545874;-74
2023/09/20 05:44:59;;;;;;;9.60;2.70;;;;;;;;;;103780;1289;544702;-75
2023/09/20 05:48:36;;;;;;;7.00;2.40;;;;;;;;;;103782;1289;545543;-75
2023/09/20 05:52:13;;;;;;;9.10;2.30;;;;;;;;;;103785;1290;544822;-76
2023/09/20 05:55:51;;;;;;;7.90;2.60;;;;;;;;;;104085;1289;544936;-74
2023/09/20 05:59:29;;;;;;;20.60;3.20;;;;;;;;;;104034;1289;546032;-75
2023/09/20 06:03:07;;;;;;;6.60;2.10;;;;;;;;;;103928;1292;544717;-75
2023/09/20 06:06:43;;;;;;;9.20;2.30;;;;;;;;;;104068;1292;545299;-75
2023/09/20 06:10:22;;;;;;;6.60;2.40;;;;;;;;;;103773;1291;545086;-74
2023/09/20 06:14:08;;;;;;;6.70;2.20;;;;;;;;;;103614;1291;548079;-74
2023/09/20 06:17:36;;;;;;;8.80;2.30;;;;;;;;;;103920;1289;546235;-74
2023/09/20 06:21:14;;;;;;;8.40;2.20;;;;;;;;;;103778;1291;544609;-74
2023/09/20 06:24:52;;;;;;;9.70;2.50;;;;;;;;;;103755;1292;545140;-75
2023/09/20 06:28:31;;;;;;;8.00;2.00;;;;;;;;;;103989;1289;544969;-75
2023/09/20 06:32:05;;;;;;;6.60;2.30;;;;;;;;;;103753;1292;544976;-75
2023/09/20 06:35:43;;;;;;;7.80;2.60;;;;;;;;;;104202;1297;544802;-75
2023/09/20 06:39:20;;;;;;;7.70;2.20;;;;;;;;;;104009;1289;545259;-75
2023/09/20 06:42:58;;;;;;;5.40;1.70;;;;;;;;;;103600;1290;545341;-75
2023/09/20 06:46:35;;;;;;;8.10;2.30;;;;;;;;;;103629;1294;544868;-75
2023/09/20 06:50:13;;;;;;;8.80;2.50;;;;;;;;;;103923;1289;544894;-74
2023/09/20 06:53:50;;;;;;;7.10;1.90;;;;;;;;;;103946;1291;544988;-75
2023/09/20 06:57:29;;;;;;;6.80;2.00;;;;;;;;;;103899;1289;545797;-75
2023/09/20 07:01:06;;;;;;;12.80;2.70;;;;;;;;;;103709;1292;544916;-74
2023/09/20 07:04:43;;;;;;;12.30;2.30;;;;;;;;;;103795;1292;544941;-76
2023/09/20 07:08:21;;;;;;;7.00;2.00;;;;;;;;;;103761;1292;544942;-75
2023/09/20 07:12:01;;;;;;;11.40;2.30;;;;;;;;;;103698;1293;545507;-75
2023/09/20 07:15:35;;;;;;;8.30;2.00;;;;;;;;;;104024;1292;544839;-74
2023/09/20 07:19:13;;;;;;;12.40;2.70;;;;;;;;;;103749;1288;545455;-75
2023/09/20 07:22:51;;;;;;;5.00;1.80;;;;;;;;;;103873;1290;545949;-75
2023/09/20 07:26:28;;;;;;;6.50;1.90;;;;;;;;;;103751;1289;545438;-75
2023/09/20 07:30:12;;;;;;;5.40;1.70;;;;;;;;;;103753;1289;544979;-75
2023/09/20 07:33:43;;;;;;;5.90;1.70;;;;;;;;;;103639;1292;544743;-75
2023/09/20 07:37:20;;;;;;;6.50;1.90;;;;;;;;;;103510;1293;544931;-75
2023/09/20 07:41:02;;;;;;;5.40;1.70;;;;;;;;;;103618;1291;544786;-75
2023/09/20 07:44:36;;;;;;;6.10;1.70;;;;;;;;;;104157;1288;545040;-75
2023/09/20 07:48:12;;;;;;;7.10;1.80;;;;;;;;;;103810;1290;544706;-75
2023/09/20 07:51:54;;;;;;;10.00;1.90;;;;;;;;;;104110;1286;546597;-75
2023/09/20 07:55:34;;;;;;;7.60;1.50;;;;;;;;;;103520;1297;544746;-74
2023/09/20 07:59:13;;;;;;;7.30;1.60;;;;;;;;;;103735;1295;545202;-78
2023/09/20 08:02:47;;;;;;;8.60;1.90;;;;;;;;;;103723;1292;544992;-74
2023/09/20 08:06:29;;;;;;;7.10;2.20;;;;;;;;;;104028;1292;544794;-75
2023/09/20 08:10:02;;;;;;;5.50;1.80;;;;;;;;;;103774;1289;545048;-75
2023/09/20 08:13:39;;;;;;;9.00;1.80;;;;;;;;;;103770;1292;544775;-75
2023/09/20 08:20:54;;;;;;;5.10;1.60;;;;;;;;;;103728;1292;545735;-75
2023/09/20 09:01:08;;;;;;;6.10;1.80;;;;;;;;;;103729;1289;544974;-74
2023/09/20 09:04:44;;;;;;;7.10;2.00;;;;;;;;;;104121;1292;545321;-75
2023/09/20 09:08:21;;;;;;;7.90;2.10;;;;;;;;;;103778;1292;545048;-75
2023/09/20 09:11:59;;;;;;;8.60;2.20;;;;;;;;;;104010;1292;545471;-75
2023/09/20 09:15:36;;;;;;;8.50;2.00;;;;;;;;;;104369;1289;545044;-75
2023/09/20 09:19:15;;;;;;;7.80;2.40;;;;;;;;;;104171;1291;544786;-78
2023/09/20 09:22:48;;;;;;;8.40;1.80;;;;;;;;;;103573;1292;545710;-73
2023/09/20 09:26:31;;;;;;;6.30;1.90;;;;;;;;;;103812;1298;545624;-73
2023/09/20 09:30:09;;;;;;;6.30;1.80;;;;;;;;;;103555;1292;545042;-74
2023/09/20 09:33:45;;;;;;;8.80;2.30;;;;;;;;;;103765;1289;545467;-72
2023/09/20 09:37:24;;;;;;;10.20;1.50;;;;;;;;;;105021;1292;544800;-75
2023/09/20 09:41:01;;;;;;;6.70;1.90;;;;;;;;;;103768;1289;545408;-76
2023/09/20 09:44:47;;;;;;;12.50;2.30;;;;;;;;;;103727;1292;545444;-74
2023/09/20 09:48:19;;;;;;;4.90;1.50;;;;;;;;;;103855;1292;545450;-75
2023/09/20 09:51:54;;;;;;;7.60;1.90;;;;;;;;;;103676;1295;545254;-75
2023/09/20 09:55:50;;;;;;;7.20;1.80;;;;;;;;;;103768;1295;547817;-74
2023/09/20 09:59:10;;;;;;;8.50;1.80;;;;;;;;;;103705;1291;545310;-75
2023/09/20 10:02:46;;;;;;;5.10;1.50;;;;;;;;;;103815;1289;544995;-76
2023/09/20 10:06:26;;;;;;;6.60;1.80;;;;;;;;;;104021;1291;545237;-74
2023/09/20 10:10:08;;;;;;;5.80;1.70;;;;;;;;;;103739;1292;544958;-72
2023/09/20 10:13:39;;;;;;;8.40;1.80;;;;;;;;;;103767;1289;545441;-75
2023/09/20 10:17:20;;;;;;;3.90;1.70;;;;;;;;;;104028;1289;545442;-75
2023/09/20 10:21:10;;;;;;;5.10;1.90;;;;;;;;;;103637;1291;545023;-76
2023/09/20 10:24:41;;;;;;;6.10;2.10;;;;;;;;;;104024;1289;545683;-74
2023/09/20 10:28:14;;;;;;;7.20;1.80;;;;;;;;;;103756;1290;544789;-75
2023/09/20 10:31:47;;;;;;;4.70;1.70;;;;;;;;;;103735;1289;544967;-74
2023/09/20 10:35:33;;;;;;;6.00;1.90;;;;;;;;;;103641;1292;545876;-74
2023/09/20 10:39:12;;;;;;;84.90;7.80;;;;;;;;;;104031;1292;545245;-72
2023/09/20 10:42:50;;;;;;;7.20;2.10;;;;;;;;;;104088;1286;545969;-74
2023/09/20 10:46:17;;;;;;;7.30;1.90;;;;;;;;;;103776;1292;545004;-75
2023/09/20 10:49:55;;;;;;;5.90;1.60;;;;;;;;;;103739;1289;546042;-72
2023/09/20 10:53:41;;;;;;;7.80;2.00;;;;;;;;;;104125;1285;545687;-74
2023/09/20 10:57:09;;;;;;;4.50;1.60;;;;;;;;;;104016;1292;545816;-73
2023/09/20 11:00:45;;;;;;;12.50;2.10;;;;;;;;;;103772;1291;544918;-75
2023/09/20 11:04:24;;;;;;;17.80;3.10;;;;;;;;;;103772;1292;545319;-73
2023/09/20 11:08:03;;;;;;;22.00;2.80;;;;;;;;;;103703;1292;544982;-74
2023/09/20 11:11:38;;;;;;;4.90;1.60;;;;;;;;;;103755;1292;545056;-74
2023/09/20 11:15:15;;;;;;;7.00;2.20;;;;;;;;;;104440;1285;544800;-76
2023/09/20 11:18:52;;;;;;;6.60;1.80;;;;;;;;;;103888;1288;545087;-71
2023/09/20 11:22:30;;;;;;;18.10;2.80;;;;;;;;;;103747;1291;544954;-74
2023/09/20 11:26:08;;;;;;;24.80;3.30;;;;;;;;;;103738;1289;544757;-76
2023/09/20 11:29:45;;;;;;;5.30;1.70;;;;;;;;;;103782;1295;545121;-74
2023/09/20 11:33:27;;;;;;;5.90;1.80;;;;;;;;;;103740;1292;544819;-72
2023/09/20 11:37:00;;;;;;;5.70;1.90;;;;;;;;;;103815;1292;545590;-74
2023/09/20 11:40:41;;;;;;;5.80;1.90;;;;;;;;;;103912;1288;544831;-75
2023/09/20 11:44:17;;;;;;;4.60;2.00;;;;;;;;;;103757;1289;546064;-75
2023/09/20 11:47:52;;;;;;;7.30;1.70;;;;;;;;;;103744;1292;545403;-75
2023/09/20 11:51:34;;;;;;;5.10;1.70;;;;;;;;;;103760;1291;545039;-73
2023/09/20 11:55:10;;;;;;;7.70;1.80;;;;;;;;;;103658;1295;544929;-75
2023/09/20 11:58:46;;;;;;;7.30;1.90;;;;;;;;;;104006;1292;545387;-75
2023/09/20 12:02:22;;;;;;;6.20;2.10;;;;;;;;;;103781;1292;546167;-73
2023/09/20 12:05:59;;;;;;;3.80;1.60;;;;;;;;;;103821;1292;545365;-74
2023/09/20 12:09:37;;;;;;;7.40;1.90;;;;;;;;;;103779;1291;544871;-73
2023/09/20 12:13:17;;;;;;;5.30;2.00;;;;;;;;;;103799;1290;544815;-74
2023/09/20 12:16:51;;;;;;;4.60;1.70;;;;;;;;;;103766;1292;545679;-73
2023/09/20 12:20:29;;;;;;;5.90;1.80;;;;;;;;;;103822;1289;545534;-74
2023/09/20 12:24:06;;;;;;;5.80;1.70;;;;;;;;;;103765;1289;545424;-76
2023/09/20 12:27:45;;;;;;;5.60;1.90;;;;;;;;;;103728;1302;544729;-75
2023/09/20 12:31:23;;;;;;;5.90;1.90;;;;;;;;;;103906;1288;544912;-74
2023/09/20 12:35:00;;;;;;;10.10;1.70;;;;;;;;;;103687;1291;544995;-73
2023/09/20 12:38:36;;;;;;;4.70;1.90;;;;;;;;;;103696;1302;544785;-74
2023/09/20 12:42:14;;;;;;;4.80;1.70;;;;;;;;;;103752;1291;545148;-73
2023/09/20 12:45:57;;;;;;;5.70;2.00;;;;;;;;;;103751;1289;545678;-75
2023/09/20 12:49:29;;;;;;;5.10;2.00;;;;;;;;;;103850;1292;544773;-73
2023/09/20 12:53:08;;;;;;;9.10;2.00;;;;;;;;;;103762;1292;544755;-74
2023/09/20 12:56:44;;;;;;;3.40;1.40;;;;;;;;;;103837;1288;545023;-75
2023/09/20 13:00:21;;;;;;;4.60;2.00;;;;;;;;;;103782;1300;545852;-74
2023/09/20 13:03:59;;;;;;;14.10;2.50;;;;;;;;;;103739;1289;544689;-75
2023/09/20 13:07:41;;;;;;;8.20;2.10;;;;;;;;;;103883;1291;547934;-75
2023/09/20 13:11:14;;;;;;;7.00;1.80;;;;;;;;;;103744;1290;545522;-76
2023/09/20 13:14:51;;;;;;;4.20;1.80;;;;;;;;;;103734;1289;544973;-75
2023/09/20 13:18:28;;;;;;;9.80;2.30;;;;;;;;;;103708;1292;545294;-76
2023/09/20 13:22:08;;;;;;;5.70;1.70;;;;;;;;;;103747;1289;545268;-74
2023/09/20 13:25:44;;;;;;;9.00;2.20;;;;;;;;;;103756;1292;545911;-74
2023/09/20 13:29:21;;;;;;;4.00;1.90;;;;;;;;;;103798;1289;544876;-75
2023/09/20 13:32:59;;;;;;;4.90;2.20;;;;;;;;;;103763;1289;544930;-80
2023/09/20 13:36:35;;;;;;;5.20;1.90;;;;;;;;;;104000;1292;544713;-76
2023/09/20 13:40:13;;;;;;;4.00;1.90;;;;;;;;;;103758;1291;544770;-73
2023/09/20 13:43:51;;;;;;;5.00;2.00;;;;;;;;;;103752;1291;544762;-72
2023/09/20 13:47:28;;;;;;;7.10;1.90;;;;;;;;;;103808;1289;544853;-73
2023/09/20 13:51:12;;;;;;;5.50;1.70;;;;;;;;;;103756;1289;544844;-74
2023/09/20 13:54:46;;;;;;;6.50;1.60;;;;;;;;;;103690;1289;545689;-72
2023/09/20 13:58:20;;;;;;;4.80;2.00;;;;;;;;;;103693;1292;544999;-73
2023/09/20 14:02:00;;;;;;;4.80;2.00;;;;;;;;;;103725;1290;545424;-76
2023/09/20 14:05:35;;;;;;;7.80;2.20;;;;;;;;;;103742;1292;544766;-73
2023/09/20 14:09:13;;;;;;;5.80;2.20;;;;;;;;;;103805;1290;545063;-74
2023/09/20 14:12:51;;;;;;;5.10;2.40;;;;;;;;;;103817;1292;545321;-76
2023/09/20 14:16:28;;;;;;;7.50;2.40;;;;;;;;;;103720;1295;545358;-74
2023/09/20 14:20:09;;;;;;;5.80;2.50;;;;;;;;;;103776;1291;545261;-73
2023/09/20 14:23:43;;;;;;;6.40;2.20;;;;;;;;;;103688;1289;544957;-75
2023/09/20 14:27:19;;;;;;;8.30;2.60;;;;;;;;;;104045;1286;545668;-74
2023/09/20 14:30:57;;;;;;;6.90;2.70;;;;;;;;;;103722;1291;546618;-74
2023/09/20 14:34:35;;;;;;;6.90;2.30;;;;;;;;;;104291;1289;544846;-74
2023/09/20 14:38:12;;;;;;;4.40;2.00;;;;;;;;;;103760;1292;544864;-75
2023/09/20 14:41:50;;;;;;;4.90;2.00;;;;;;;;;;103799;1289;544921;-74
2023/09/20 14:45:32;;;;;;;14.00;2.60;;;;;;;;;;103729;1301;546153;-74
2023/09/20 14:49:05;;;;;;;21.10;3.10;;;;;;;;;;103754;1292;545334;-74
2023/09/20 14:52:42;;;;;;;10.20;2.40;;;;;;;;;;104385;1283;545052;-73
2023/09/20 14:56:20;;;;;;;9.50;2.10;;;;;;;;;;103835;1293;545032;-73
2023/09/20 14:59:57;;;;;;;5.20;1.90;;;;;;;;;;103677;1289;545259;-74
2023/09/20 15:03:34;;;;;;;6.60;2.10;;;;;;;;;;103852;1289;544758;-73
2023/09/20 15:07:12;;;;;;;7.00;1.90;;;;;;;;;;103776;1292;544906;-73
2023/09/20 15:10:51;;;;;;;5.30;2.00;;;;;;;;;;103738;1295;544813;-73
2023/09/20 15:14:29;;;;;;;4.00;1.70;;;;;;;;;;103729;1291;545229;-77
2023/09/20 15:18:05;;;;;;;6.70;2.00;;;;;;;;;;103882;1292;544936;-74
2023/09/20 15:21:42;;;;;;;5.60;2.20;;;;;;;;;;103725;1292;544776;-74
2023/09/20 15:25:20;;;;;;;5.20;1.70;;;;;;;;;;104305;1286;545190;-76
2023/09/20 15:28:57;;;;;;;7.00;2.10;;;;;;;;;;103740;1292;545531;-75
2023/09/20 15:32:35;;;;;;;4.30;1.70;;;;;;;;;;103716;1290;545434;-75
2023/09/20 15:36:08;;;;;;;5.70;2.00;;;;;;;;;;103635;1289;544813;-75
2023/09/20 15:39:50;;;;;;;8.10;1.70;;;;;;;;;;103758;1290;544997;-75
2023/09/20 15:43:39;;;;;;;7.10;1.90;;;;;;;;;;103759;1289;545719;-75
2023/09/20 15:47:06;;;;;;;7.30;2.20;;;;;;;;;;103750;1291;544983;-74
2023/09/20 15:50:43;;;;;;;5.00;2.00;;;;;;;;;;103752;1291;545425;-75
2023/09/20 15:54:21;;;;;;;4.70;2.00;;;;;;;;;;103838;1290;544976;-75
2023/09/20 15:57:59;;;;;;;4.90;1.90;;;;;;;;;;103988;1291;544986;-75
2023/09/20 16:01:36;;;;;;;6.60;1.90;;;;;;;;;;103801;1292;544739;-72
2023/09/20 16:05:13;;;;;;;6.00;2.10;;;;;;;;;;104017;1289;545157;-73
2023/09/20 16:08:53;;;;;;;5.20;1.90;;;;;;;;;;103685;1292;545393;-75
2023/09/20 16:12:28;;;;;;;8.50;2.10;;;;;;;;;;103644;1291;545017;-75
2023/09/20 16:16:06;;;;;;;7.20;2.30;;;;;;;;;;104025;1289;545203;-73
2023/09/20 16:19:43;;;;;;;8.50;2.00;;;;;;;;;;103759;1289;544991;-72
2023/09/20 16:23:17;;;;;;;6.90;2.20;;;;;;;;;;104796;1282;545499;-75
2023/09/20 16:26:59;;;;;;;7.60;2.30;;;;;;;;;;104032;1291;546283;-75
2023/09/20 16:30:37;;;;;;;6.90;2.10;;;;;;;;;;103833;1290;544799;-74
2023/09/20 16:34:14;;;;;;;10.10;2.80;;;;;;;;;;103741;1292;544945;-75
2023/09/20 16:37:52;;;;;;;9.00;2.60;;;;;;;;;;104484;1282;545722;-74
2023/09/20 16:41:30;;;;;;;9.40;2.10;;;;;;;;;;103743;1290;545553;-75
2023/09/20 16:45:08;;;;;;;6.10;2.30;;;;;;;;;;103803;1292;544746;-75
2023/09/20 16:48:44;;;;;;;12.30;2.90;;;;;;;;;;103704;1292;544941;-75
2023/09/20 16:52:22;;;;;;;7.50;3.00;;;;;;;;;;103734;1290;544764;-75
2023/09/20 16:56:00;;;;;;;7.00;3.10;;;;;;;;;;103670;1290;545626;-75
2023/09/20 16:59:37;;;;;;;7.60;3.30;;;;;;;;;;103782;1289;544889;-73
2023/09/20 17:03:14;;;;;;;9.80;3.50;;;;;;;;;;103560;1292;544996;-75
2023/09/20 17:06:52;;;;;;;11.20;3.40;;;;;;;;;;103814;1289;544981;-75
2023/09/20 17:10:30;;;;;;;14.60;3.90;;;;;;;;;;103720;1291;544830;-75
2023/09/20 17:14:04;;;;;;;12.00;3.60;;;;;;;;;;103756;1292;545510;-75
2023/09/20 17:17:47;;;;;;;11.10;3.00;;;;;;;;;;104163;1291;544880;-75
2023/09/20 17:21:26;;;;;;;8.20;3.20;;;;;;;;;;103734;1292;545730;-75
2023/09/20 17:25:01;;;;;;;7.40;2.80;;;;;;;;;;103842;1289;546175;-73
2023/09/20 17:28:39;;;;;;;8.60;2.90;;;;;;;;;;103789;1292;544948;-75
2023/09/20 17:32:16;;;;;;;8.50;3.10;;;;;;;;;;103889;1289;544996;-75
2023/09/20 17:35:51;;;;;;;8.30;3.50;;;;;;;;;;103842;1290;544782;-74
2023/09/20 17:39:36;;;;;;;9.20;3.50;;;;;;;;;;104024;1286;544937;-75
2023/09/20 17:43:11;;;;;;;10.10;3.70;;;;;;;;;;104043;1286;544720;-75
2023/09/20 17:46:49;;;;;;;10.10;3.90;;;;;;;;;;104068;1298;544736;-75
2023/09/20 17:50:27;;;;;;;9.60;3.80;;;;;;;;;;104039;1290;545045;-75
2023/09/20 17:54:04;;;;;;;9.90;4.00;;;;;;;;;;103816;1291;545228;-75
2023/09/20 17:57:42;;;;;;;8.20;3.90;;;;;;;;;;103804;1289;545418;-76
2023/09/20 18:01:19;;;;;;;7.90;4.10;;;;;;;;;;103786;1291;544788;-75
2023/09/20 18:05:01;;;;;;;10.30;4.50;;;;;;;;;;103893;1294;548088;-74
2023/09/20 18:08:33;;;;;;;10.20;4.10;;;;;;;;;;103746;1289;545117;-76
2023/09/20 18:12:13;;;;;;;13.00;4.30;;;;;;;;;;103947;1292;545417;-75
2023/09/20 18:15:50;;;;;;;10.10;4.10;;;;;;;;;;103685;1294;545098;-75
2023/09/20 18:19:26;;;;;;;8.70;4.00;;;;;;;;;;103769;1291;544768;-75
2023/09/20 18:23:04;;;;;;;9.90;4.20;;;;;;;;;;103576;1295;545004;-74
2023/09/20 18:27:01;;;;;;;13.40;4.10;;;;;;;;;;103721;1296;548153;-74
2023/09/20 18:30:19;;;;;;;13.50;4.40;;;;;;;;;;103793;1292;544716;-74
2023/09/20 18:33:56;;;;;;;10.20;4.10;;;;;;;;;;104653;1285;544948;-75
2023/09/20 18:37:33;;;;;;;14.10;4.90;;;;;;;;;;103970;1300;545623;-74
2023/09/20 18:41:25;;;;;;;14.30;5.30;;;;;;;;;;103637;1294;547911;-76
2023/09/20 18:44:49;;;;;;;12.30;5.80;;;;;;;;;;103770;1291;545500;-75
2023/09/20 18:48:26;;;;;;;11.30;5.40;;;;;;;;;;103829;1291;544980;-76
2023/09/20 18:52:05;;;;;;;11.60;6.00;;;;;;;;;;104037;1292;544979;-75
2023/09/20 18:56:02;;;;;;;12.90;6.00;;;;;;;;;;104108;1288;548036;-75
2023/09/20 18:59:29;;;;;;;13.20;5.80;;;;;;;;;;103931;1292;547972;-75
2023/09/20 19:03:08;;;;;;;11.30;5.30;;;;;;;;;;103773;1292;545030;-75
2023/09/20 19:16:57;;;;;;;12.00;5.40;;;;;;;;;;104965;1281;549631;-74
2023/09/20 19:19:47;;;;;;;11.10;4.90;;;;;;;;;;103757;1294;545648;-74
2023/09/20 19:23:22;;;;;;;10.10;5.10;;;;;;;;;;104044;1288;544752;-74
2023/09/20 19:37:48;;;;;;;11.10;5.00;;;;;;;;;;107239;1263;550735;-76
2023/09/20 19:40:47;;;;;;;11.00;4.80;;;;;;;;;;103654;1291;546925;-75
2023/09/20 19:44:20;;;;;;;12.30;5.30;;;;;;;;;;103615;1292;545788;-76
2023/09/20 19:47:55;;;;;;;10.30;5.00;;;;;;;;;;103743;1289;544858;-75
2023/09/20 19:51:44;;;;;;;10.40;4.90;;;;;;;;;;103638;1294;547826;-75
2023/09/20 19:55:12;;;;;;;11.20;4.90;;;;;;;;;;103741;1295;544927;-76
2023/09/20 20:09:15;;;;;;;12.60;5.20;;;;;;;;;;104715;1282;550239;-76
2023/09/20 20:12:09;;;;;;;19.40;6.00;;;;;;;;;;103672;1289;545188;-76
2023/09/20 20:26:28;;;;;;;11.40;5.10;;;;;;;;;;107258;1258;550219;-75
2023/09/20 20:29:30;;;;;;;10.60;4.30;;;;;;;;;;104130;1288;547960;-76
2023/09/20 20:32:56;;;;;;;8.80;4.00;;;;;;;;;;103837;1291;549662;-76
2023/09/20 20:36:44;;;;;;;11.20;4.00;;;;;;;;;;103564;1291;546163;-74
2023/09/20 20:40:15;;;;;;;10.60;4.00;;;;;;;;;;103464;1295;547979;-75
2023/09/20 20:44:20;;;;;;;8.80;4.10;;;;;;;;;;104053;1289;545444;-75
2023/09/20 20:47:25;;;;;;;10.40;4.10;;;;;;;;;;103455;1295;544926;-74
2023/09/20 20:51:09;;;;;;;9.30;4.60;;;;;;;;;;103737;1291;544914;-74
2023/09/20 20:54:39;;;;;;;11.40;4.30;;;;;;;;;;103702;1291;545443;-74
2023/09/20 20:58:18;;;;;;;10.50;4.40;;;;;;;;;;103848;1291;545032;-75
2023/09/20 21:01:54;;;;;;;8.70;3.90;;;;;;;;;;103818;1289;544799;-75
2023/09/20 21:05:31;;;;;;;8.90;4.20;;;;;;;;;;103737;1291;545102;-76
2023/09/20 21:09:14;;;;;;;9.30;4.20;;;;;;;;;;103638;1292;545255;-76
2023/09/20 21:12:48;;;;;;;10.50;4.60;;;;;;;;;;103949;1291;545072;-75
2023/09/20 21:16:20;;;;;;;9.70;4.40;;;;;;;;;;103801;1293;544733;-76
2023/09/20 21:20:13;;;;;;;10.90;4.30;;;;;;;;;;104036;1291;545518;-75
2023/09/20 21:23:40;;;;;;;10.70;4.50;;;;;;;;;;104033;1290;544961;-74
2023/09/20 21:27:18;;;;;;;9.30;4.30;;;;;;;;;;103705;1289;544616;-75
2023/09/20 21:30:55;;;;;;;10.60;4.50;;;;;;;;;;103849;1292;545943;-75
2023/09/20 21:34:38;;;;;;;9.80;4.70;;;;;;;;;;103480;1292;547800;-76
2023/09/20 21:38:11;;;;;;;11.20;4.50;;;;;;;;;;103802;1289;544921;-75
2023/09/20 21:41:48;;;;;;;10.20;4.50;;;;;;;;;;103864;1288;544895;-74
2023/09/20 21:45:27;;;;;;;11.00;4.30;;;;;;;;;;104806;1282;545238;-75
2023/09/20 21:49:03;;;;;;;9.60;4.10;;;;;;;;;;103636;1291;544942;-75
2023/09/20 21:52:40;;;;;;;9.10;4.30;;;;;;;;;;103885;1300;544730;-75
2023/09/20 21:56:17;;;;;;;11.50;4.00;;;;;;;;;;104566;1282;544789;-75
2023/09/20 21:59:55;;;;;;;8.80;4.30;;;;;;;;;;103866;1291;544930;-74
2023/09/20 23:00:48;;;;;;;7.20;2.70;;;;;;;;;;103715;1292;544937;-75
2023/09/20 23:09:01;;;;;;;7.00;3.10;;;;;;;;;;104887;1283;548144;-75
2023/09/20 23:17:01;;;;;;;8.70;2.80;;;;;;;;;;104644;1286;546901;-75
2023/09/20 23:19:54;;;;;;;6.00;2.50;;;;;;;;;;103838;1289;544984;-75
2023/09/20 23:23:26;;;;;;;5.70;2.30;;;;;;;;;;104159;1288;545345;-75